Time,TemperatureF,DewpointF,PressureIn,WindDirection,WindDirectionDegrees,WindSpeedMPH,WindSpeedGustMPH,Humidity,HourlyPrecipIn,Conditions,Clouds,dailyrainin,SoftwareType,DateUTC
2013-01-29 00:00:00,26.7,25.2,30.18,NW,315,0.3,2.3,94,0.00,OVC,,0.00,WeatherDisplay:10.37,2013-01-29 05:00:00,
2013-01-29 00:01:00,26.9,25.4,30.19,NW,315,0.0,2.3,94,0.00,-SN,,0.00,WeatherDisplay:10.37,2013-01-29 05:01:00,
2013-01-29 00:07:00,26.9,25.4,30.18,NW,315,0.0,1.2,94,0.00,-SN,,0.00,WeatherDisplay:10.37,2013-01-29 05:07:00,
2013-01-29 00:12:00,27.1,25.6,30.18,NW,315,0.0,1.2,94,0.00,-SN,,0.00,WeatherDisplay:10.37,2013-01-29 05:12:00,
2013-01-29 00:17:00,27.1,25.6,30.18,NW,315,0.6,2.0,94,0.00,-SN,,0.00,WeatherDisplay:10.37,2013-01-29 05:17:00,
2013-01-29 00:22:00,27.1,25.6,30.19,NW,315,0.5,1.2,94,0.00,-SN,,0.00,WeatherDisplay:10.37,2013-01-29 05:22:00,
2013-01-29 00:27:00,27.2,25.7,30.19,NNW,337,0.6,1.2,94,0.00,-SN,,0.00,WeatherDisplay:10.37,2013-01-29 05:27:00,
2013-01-29 00:32:00,27.2,25.7,30.20,West,270,0.2,2.0,94,0.00,-SN,,0.00,WeatherDisplay:10.37,2013-01-29 05:32:00,
2013-01-29 00:37:00,27.2,25.7,30.19,North,360,1.0,2.3,94,0.00,-SN,,0.00,WeatherDisplay:10.37,2013-01-29 05:37:00,
2013-01-29 00:42:00,27.1,25.6,30.19,NE,45,0.0,2.3,94,0.00,-SN,,0.00,WeatherDisplay:10.37,2013-01-29 05:42:00,
2013-01-29 00:47:00,27.0,25.5,30.19,NNW,337,1.2,2.3,94,0.00,-SN,,0.00,WeatherDisplay:10.37,2013-01-29 05:47:00,
2013-01-29 00:52:00,26.9,25.4,30.19,SE,135,0.0,1.2,94,0.00,-SN,,0.00,WeatherDisplay:10.37,2013-01-29 05:52:00,
2013-01-29 00:57:00,26.9,25.4,30.19,NW,315,0.5,1.2,94,0.00,-SN,,0.00,WeatherDisplay:10.37,2013-01-29 05:57:00,
2013-01-29 01:02:00,26.9,25.4,30.19,NNW,337,0.4,1.2,94,0.00,OVC,,0.00,WeatherDisplay:10.37,2013-01-29 06:02:00,
2013-01-29 01:07:00,27.0,25.5,30.19,NW,315,0.4,2.3,94,0.00,OVC,,0.00,WeatherDisplay:10.37,2013-01-29 06:07:00,
2013-01-29 01:12:00,27.0,25.5,30.19,North,360,0.9,2.3,94,0.00,OVC,,0.00,WeatherDisplay:10.37,2013-01-29 06:12:00,
2013-01-29 01:17:00,27.0,25.5,30.20,North,360,0.8,1.0,94,0.00,OVC,,0.00,WeatherDisplay:10.37,2013-01-29 06:17:00,
2013-01-29 01:22:00,27.0,25.5,30.20,West,270,0.0,0.0,94,0.00,OVC,,0.00,WeatherDisplay:10.37,2013-01-29 06:22:00,
2013-01-29 01:27:00,27.0,25.5,30.20,NW,315,0.8,2.3,94,0.00,OVC,,0.00,WeatherDisplay:10.37,2013-01-29 06:27:00,
2013-01-29 01:32:00,27.0,25.5,30.20,NW,315,0.1,2.3,94,0.00,OVC,,0.00,WeatherDisplay:10.37,2013-01-29 06:32:00,
2013-01-29 01:37:00,27.0,25.5,30.21,NW,315,0.9,2.3,94,0.00,OVC,,0.00,WeatherDisplay:10.37,2013-01-29 06:37:00,
2013-01-29 01:42:00,27.0,25.5,30.21,North,360,1.0,1.2,94,0.00,OVC,,0.00,WeatherDisplay:10.37,2013-01-29 06:42:00,
2013-01-29 01:47:00,27.1,25.6,30.21,NW,315,1.0,2.3,94,0.00,OVC,,0.00,WeatherDisplay:10.37,2013-01-29 06:47:00,
2013-01-29 01:52:00,27.1,25.6,30.21,West,270,0.0,1.2,94,0.00,OVC,,0.00,WeatherDisplay:10.37,2013-01-29 06:52:00,
2013-01-29 01:57:00,27.1,25.6,30.21,West,270,0.1,0.0,94,0.00,OVC,,0.00,WeatherDisplay:10.37,2013-01-29 06:57:00,
2013-01-29 02:02:00,27.1,25.6,30.21,North,360,1.3,2.3,94,0.00,OVC,,0.00,WeatherDisplay:10.37,2013-01-29 07:02:00,
2013-01-29 02:07:00,27.0,25.5,30.21,NW,315,0.7,2.3,94,0.00,OVC,,0.00,WeatherDisplay:10.37,2013-01-29 07:07:00,
2013-01-29 02:12:00,27.0,25.5,30.21,NW,315,0.0,0.0,94,0.00,OVC,,0.00,WeatherDisplay:10.37,2013-01-29 07:12:00,
2013-01-29 02:17:00,26.9,25.4,30.21,NW,315,1.3,2.3,94,0.00,OVC,,0.00,WeatherDisplay:10.37,2013-01-29 07:17:00,
2013-01-29 02:22:00,26.9,25.4,30.22,NNW,337,1.4,2.3,94,0.00,OVC,,0.00,WeatherDisplay:10.37,2013-01-29 07:22:00,
2013-01-29 02:27:00,26.9,25.4,30.22,NNW,337,0.6,2.3,94,0.00,OVC,,0.00,WeatherDisplay:10.37,2013-01-29 07:27:00,
2013-01-29 02:32:00,26.9,25.4,30.22,NNE,22,0.8,2.3,94,0.00,OVC,,0.00,WeatherDisplay:10.37,2013-01-29 07:32:00,
2013-01-29 02:37:00,26.8,25.3,30.22,NE,45,0.2,1.2,94,0.00,OVC,,0.00,WeatherDisplay:10.37,2013-01-29 07:37:00,
2013-01-29 02:42:00,26.8,25.3,30.22,NW,315,0.8,2.3,94,0.00,OVC,,0.00,WeatherDisplay:10.37,2013-01-29 07:42:00,
2013-01-29 02:47:00,26.8,25.3,30.22,NE,45,0.0,1.2,94,0.00,OVC,,0.00,WeatherDisplay:10.37,2013-01-29 07:47:00,
2013-01-29 02:52:00,26.7,25.2,30.22,NW,315,0.2,2.3,94,0.00,OVC,,0.00,WeatherDisplay:10.37,2013-01-29 07:52:00,
2013-01-29 02:57:00,26.6,25.1,30.22,NE,45,0.0,2.3,94,0.00,OVC,,0.00,WeatherDisplay:10.37,2013-01-29 07:57:00,
2013-01-29 03:02:00,26.6,25.1,30.22,NE,45,1.2,2.3,94,0.00,OVC,,0.00,WeatherDisplay:10.37,2013-01-29 08:02:00,
2013-01-29 03:07:00,26.5,25.0,30.22,NE,45,0.0,2.3,94,0.00,OVC,,0.00,WeatherDisplay:10.37,2013-01-29 08:07:00,
2013-01-29 03:12:00,26.5,25.0,30.22,NNE,22,1.4,2.3,94,0.00,OVC,,0.00,WeatherDisplay:10.37,2013-01-29 08:12:00,
2013-01-29 03:17:00,26.4,24.9,30.23,WNW,292,0.5,2.3,94,0.00,OVC,,0.00,WeatherDisplay:10.37,2013-01-29 08:17:00,
2013-01-29 03:22:00,26.4,24.9,30.23,West,270,0.8,2.3,94,0.00,OVC,,0.00,WeatherDisplay:10.37,2013-01-29 08:22:00,
2013-01-29 03:27:00,26.3,24.8,30.24,North,360,1.0,2.0,94,0.00,OVC,,0.00,WeatherDisplay:10.37,2013-01-29 08:27:00,
2013-01-29 03:32:00,26.3,24.8,30.24,West,270,1.1,2.3,94,0.00,OVC,,0.00,WeatherDisplay:10.37,2013-01-29 08:32:00,
2013-01-29 03:37:00,26.3,24.8,30.24,West,270,0.0,2.3,94,0.00,OVC,,0.00,WeatherDisplay:10.37,2013-01-29 08:37:00,
2013-01-29 03:42:00,26.3,24.8,30.23,NW,315,0.9,2.3,94,0.00,OVC,,0.00,WeatherDisplay:10.37,2013-01-29 08:42:00,
2013-01-29 03:47:00,26.2,24.7,30.23,WNW,292,1.2,2.3,94,0.00,OVC,,0.00,WeatherDisplay:10.37,2013-01-29 08:47:00,
2013-01-29 03:52:00,26.2,24.7,30.24,NE,45,0.8,3.5,94,0.00,OVC,,0.00,WeatherDisplay:10.37,2013-01-29 08:52:00,
2013-01-29 03:57:00,26.2,24.7,30.24,WSW,247,0.6,1.2,94,0.00,OVC,,0.00,WeatherDisplay:10.37,2013-01-29 08:57:00,
2013-01-29 04:02:00,26.1,24.6,30.24,North,360,1.1,3.0,94,0.00,OVC,,0.00,WeatherDisplay:10.37,2013-01-29 09:02:00,
2013-01-29 04:07:00,26.1,24.6,30.24,NW,315,1.5,2.3,94,0.00,OVC,,0.00,WeatherDisplay:10.37,2013-01-29 09:07:00,
2013-01-29 04:12:00,25.9,24.4,30.24,NW,315,1.2,3.5,94,0.00,OVC,,0.00,WeatherDisplay:10.37,2013-01-29 09:12:00,
2013-01-29 04:17:00,25.9,24.4,30.24,NW,315,1.2,3.0,94,0.00,OVC,,0.00,WeatherDisplay:10.37,2013-01-29 09:17:00,
2013-01-29 04:22:00,25.9,24.4,30.25,NE,45,0.9,2.3,94,0.00,OVC,,0.00,WeatherDisplay:10.37,2013-01-29 09:22:00,
2013-01-29 04:27:00,25.9,24.4,30.25,North,360,0.6,1.2,94,0.00,OVC,,0.00,WeatherDisplay:10.37,2013-01-29 09:27:00,
2013-01-29 04:32:00,25.9,24.4,30.25,SW,225,0.9,2.3,94,0.00,OVC,,0.00,WeatherDisplay:10.37,2013-01-29 09:32:00,
2013-01-29 04:37:00,25.9,24.4,30.25,NE,45,0.6,2.3,94,0.00,OVC,,0.00,WeatherDisplay:10.37,2013-01-29 09:37:00,
2013-01-29 04:42:00,25.9,24.4,30.25,NNW,337,0.2,1.2,94,0.00,OVC,,0.00,WeatherDisplay:10.37,2013-01-29 09:42:00,
2013-01-29 04:47:00,25.9,24.4,30.25,SE,135,0.5,2.0,94,0.00,OVC,,0.00,WeatherDisplay:10.37,2013-01-29 09:47:00,
2013-01-29 04:52:00,25.8,24.3,30.26,NW,315,1.1,2.3,94,0.00,OVC,,0.00,WeatherDisplay:10.37,2013-01-29 09:52:00,
2013-01-29 04:57:00,25.8,24.3,30.26,NE,45,0.8,2.3,94,0.00,OVC,,0.00,WeatherDisplay:10.37,2013-01-29 09:57:00,
2013-01-29 05:02:00,25.8,24.3,30.26,NW,315,1.5,2.3,94,0.00,OVC,,0.00,WeatherDisplay:10.37,2013-01-29 10:02:00,
2013-01-29 05:07:00,25.8,24.3,30.26,NW,315,0.5,2.3,94,0.00,OVC,,0.00,WeatherDisplay:10.37,2013-01-29 10:07:00,
2013-01-29 05:12:00,25.8,24.3,30.26,SE,135,0.0,2.3,94,0.00,OVC,,0.00,WeatherDisplay:10.37,2013-01-29 10:12:00,
2013-01-29 05:17:00,25.8,24.3,30.27,NW,315,1.0,2.3,94,0.00,OVC,,0.00,WeatherDisplay:10.37,2013-01-29 10:17:00,
2013-01-29 05:22:00,25.8,24.3,30.26,NE,45,1.0,1.2,94,0.00,OVC,,0.00,WeatherDisplay:10.37,2013-01-29 10:22:00,
2013-01-29 05:27:00,25.8,24.3,30.27,WNW,292,0.2,2.3,94,0.00,OVC,,0.00,WeatherDisplay:10.37,2013-01-29 10:27:00,
2013-01-29 05:32:00,25.8,24.3,30.27,WNW,292,0.1,1.2,94,0.00,OVC,,0.00,WeatherDisplay:10.37,2013-01-29 10:32:00,
2013-01-29 05:37:00,25.8,24.3,30.27,NW,315,0.9,3.5,94,0.00,OVC,,0.00,WeatherDisplay:10.37,2013-01-29 10:37:00,
2013-01-29 05:42:00,25.7,24.2,30.27,NE,45,0.1,1.2,94,0.00,OVC,,0.00,WeatherDisplay:10.37,2013-01-29 10:42:00,
2013-01-29 05:47:00,25.7,24.2,30.27,WNW,292,0.7,2.3,94,0.00,OVC,,0.00,WeatherDisplay:10.37,2013-01-29 10:47:00,
2013-01-29 05:52:00,25.7,24.2,30.27,NW,315,0.3,1.2,94,0.00,OVC,,0.00,WeatherDisplay:10.37,2013-01-29 10:52:00,
2013-01-29 05:57:00,25.7,24.2,30.27,SSW,202,0.3,2.0,94,0.00,OVC,,0.00,WeatherDisplay:10.37,2013-01-29 10:57:00,
2013-01-29 06:02:00,25.7,24.2,30.27,North,360,0.5,2.3,94,0.00,OVC,,0.00,WeatherDisplay:10.37,2013-01-29 11:02:00,
2013-01-29 06:07:00,25.7,24.2,30.28,North,360,0.0,0.0,94,0.00,OVC,,0.00,WeatherDisplay:10.37,2013-01-29 11:07:00,
2013-01-29 06:12:00,25.7,24.2,30.28,NE,45,0.0,1.2,94,0.00,OVC,,0.00,WeatherDisplay:10.37,2013-01-29 11:12:00,
2013-01-29 06:17:00,25.6,24.1,30.28,NW,315,1.0,2.3,94,0.00,OVC,,0.00,WeatherDisplay:10.37,2013-01-29 11:17:00,
2013-01-29 06:22:00,25.6,24.1,30.28,NE,45,1.1,2.3,94,0.00,OVC,,0.00,WeatherDisplay:10.37,2013-01-29 11:22:00,
2013-01-29 06:27:00,25.5,24.0,30.29,North,360,0.8,1.0,94,0.00,OVC,,0.00,WeatherDisplay:10.37,2013-01-29 11:27:00,
2013-01-29 06:32:00,25.5,24.0,30.29,West,270,0.2,2.3,94,0.00,OVC,,0.00,WeatherDisplay:10.37,2013-01-29 11:32:00,
2013-01-29 06:37:00,25.5,24.0,30.30,West,270,0.5,2.3,94,0.00,OVC,,0.00,WeatherDisplay:10.37,2013-01-29 11:37:00,
2013-01-29 06:42:00,25.5,24.0,30.30,West,270,1.5,2.3,94,0.00,OVC,,0.00,WeatherDisplay:10.37,2013-01-29 11:42:00,
2013-01-29 06:47:00,25.4,23.9,30.30,NE,45,1.3,2.3,94,0.00,OVC,,0.00,WeatherDisplay:10.37,2013-01-29 11:47:00,
2013-01-29 06:52:00,25.4,23.9,30.31,NNE,22,1.5,2.3,94,0.00,OVC,,0.00,WeatherDisplay:10.37,2013-01-29 11:52:00,
2013-01-29 06:57:00,25.4,23.9,30.31,North,360,1.3,2.3,94,0.00,OVC,,0.00,WeatherDisplay:10.37,2013-01-29 11:57:00,
2013-01-29 07:02:00,25.3,23.8,30.31,NNW,337,1.1,2.3,94,0.00,OVC,,0.00,WeatherDisplay:10.37,2013-01-29 12:02:00,
2013-01-29 07:07:00,25.3,23.8,30.31,NE,45,0.3,2.3,94,0.00,OVC,,0.00,WeatherDisplay:10.37,2013-01-29 12:07:00,
2013-01-29 07:12:00,25.3,23.8,30.31,SE,135,0.5,2.3,94,0.00,OVC,,0.00,WeatherDisplay:10.37,2013-01-29 12:12:00,
2013-01-29 07:17:00,25.2,23.7,30.32,NNW,337,1.0,2.3,94,0.00,OVC,,0.00,WeatherDisplay:10.37,2013-01-29 12:17:00,
2013-01-29 07:22:00,25.2,23.7,30.32,NNE,22,1.4,2.3,94,0.00,OVC,,0.00,WeatherDisplay:10.37,2013-01-29 12:22:00,
2013-01-29 07:27:00,25.3,23.8,30.33,WNW,292,0.6,1.0,94,0.00,OVC,,0.00,WeatherDisplay:10.37,2013-01-29 12:27:00,
2013-01-29 07:32:00,25.3,23.8,30.33,West,270,0.6,2.3,94,0.00,OVC,,0.00,WeatherDisplay:10.37,2013-01-29 12:32:00,
2013-01-29 07:37:00,25.3,23.8,30.34,West,270,0.8,2.3,94,0.00,OVC,,0.00,WeatherDisplay:10.37,2013-01-29 12:37:00,
2013-01-29 07:42:00,25.4,23.9,30.34,West,270,1.2,2.3,94,0.00,OVC,,0.00,WeatherDisplay:10.37,2013-01-29 12:42:00,
2013-01-29 07:47:00,25.5,24.0,30.34,North,360,1.4,3.5,94,0.00,OVC,,0.00,WeatherDisplay:10.37,2013-01-29 12:47:00,
2013-01-29 07:52:00,25.5,24.0,30.34,West,270,1.0,2.3,94,0.00,OVC,,0.00,WeatherDisplay:10.37,2013-01-29 12:52:00,
2013-01-29 07:57:00,25.5,24.0,30.34,NE,45,0.1,1.2,94,0.00,OVC,,0.00,WeatherDisplay:10.37,2013-01-29 12:57:00,
2013-01-29 08:02:00,25.6,24.1,30.33,West,270,1.2,2.3,94,0.00,OVC,,0.00,WeatherDisplay:10.37,2013-01-29 13:02:00,
2013-01-29 08:07:00,25.7,24.2,30.34,WNW,292,0.5,1.2,94,0.00,OVC,,0.00,WeatherDisplay:10.37,2013-01-29 13:07:00,
2013-01-29 08:12:00,25.9,24.4,30.33,WNW,292,0.0,1.0,94,0.00,OVC,,0.00,WeatherDisplay:10.37,2013-01-29 13:12:00,
2013-01-29 08:17:00,26.1,24.6,30.34,North,360,0.3,2.3,94,0.00,OVC,,0.00,WeatherDisplay:10.37,2013-01-29 13:17:00,
2013-01-29 08:22:00,26.2,24.7,30.34,West,270,1.4,2.3,94,0.00,OVC,,0.00,WeatherDisplay:10.37,2013-01-29 13:22:00,
2013-01-29 08:27:00,26.3,24.8,30.34,West,270,0.3,1.2,94,0.00,OVC,,0.00,WeatherDisplay:10.37,2013-01-29 13:27:00,
2013-01-29 08:32:00,26.4,24.9,30.34,NW,315,1.3,2.3,94,0.00,OVC,,0.00,WeatherDisplay:10.37,2013-01-29 13:32:00,
2013-01-29 08:37:00,26.4,24.9,30.34,NE,45,0.0,0.0,94,0.00,OVC,,0.00,WeatherDisplay:10.37,2013-01-29 13:37:00,
2013-01-29 08:42:00,26.5,25.0,30.34,West,270,1.5,2.3,94,0.00,OVC,,0.00,WeatherDisplay:10.37,2013-01-29 13:42:00,
2013-01-29 08:47:00,26.6,25.1,30.34,WSW,247,1.3,2.3,94,0.00,OVC,,0.00,WeatherDisplay:10.37,2013-01-29 13:47:00,
2013-01-29 08:52:00,26.6,25.1,30.34,West,270,1.9,3.5,94,0.00,OVC,,0.00,WeatherDisplay:10.37,2013-01-29 13:52:00,
2013-01-29 08:57:00,26.7,25.2,30.34,NE,45,0.4,2.3,94,0.00,OVC,,0.00,WeatherDisplay:10.37,2013-01-29 13:57:00,
2013-01-29 09:02:00,26.9,25.4,30.35,WNW,292,0.7,2.3,94,0.00,OVC,,0.00,WeatherDisplay:10.37,2013-01-29 14:02:00,
2013-01-29 09:07:00,27.2,25.7,30.35,West,270,1.3,2.3,94,0.00,OVC,,0.00,WeatherDisplay:10.37,2013-01-29 14:07:00,
2013-01-29 09:12:00,27.5,26.0,30.35,NNW,337,0.9,2.3,94,0.00,OVC,,0.00,WeatherDisplay:10.37,2013-01-29 14:12:00,
2013-01-29 09:17:00,27.7,26.2,30.34,West,270,1.0,2.3,94,0.00,OVC,,0.00,WeatherDisplay:10.37,2013-01-29 14:17:00,
2013-01-29 09:22:00,27.7,26.2,30.34,West,270,0.1,1.2,94,0.00,OVC,,0.00,WeatherDisplay:10.37,2013-01-29 14:22:00,
2013-01-29 09:27:00,28.1,26.6,30.33,NNW,337,0.9,2.3,94,0.00,OVC,,0.00,WeatherDisplay:10.37,2013-01-29 14:27:00,
2013-01-29 09:32:00,28.3,26.8,30.33,SE,135,0.3,1.2,94,0.00,OVC,,0.00,WeatherDisplay:10.37,2013-01-29 14:32:00,
2013-01-29 09:37:00,28.6,27.1,30.33,NE,45,0.7,2.3,94,0.00,OVC,,0.00,WeatherDisplay:10.37,2013-01-29 14:37:00,
2013-01-29 09:42:00,28.8,27.3,30.33,SE,135,1.1,2.3,94,0.00,OVC,,0.00,WeatherDisplay:10.37,2013-01-29 14:42:00,
2013-01-29 09:47:00,28.9,27.4,30.34,NW,315,0.7,2.3,94,0.00,OVC,,0.00,WeatherDisplay:10.37,2013-01-29 14:47:00,
2013-01-29 09:52:00,29.2,27.7,30.34,NW,315,0.9,2.3,94,0.00,OVC,,0.00,WeatherDisplay:10.37,2013-01-29 14:52:00,
2013-01-29 09:57:00,29.0,27.5,30.35,NNW,337,1.4,2.3,94,0.00,OVC,,0.00,WeatherDisplay:10.37,2013-01-29 14:57:00,
2013-01-29 10:02:00,29.2,27.7,30.35,NNW,337,0.5,2.3,94,0.00,OVC,,0.00,WeatherDisplay:10.37,2013-01-29 15:02:00,
2013-01-29 10:07:00,29.5,28.0,30.35,NW,315,0.0,2.3,94,0.00,OVC,,0.00,WeatherDisplay:10.37,2013-01-29 15:07:00,
2013-01-29 10:12:00,29.7,28.2,30.35,NE,45,0.0,2.3,94,0.00,OVC,,0.00,WeatherDisplay:10.37,2013-01-29 15:12:00,
2013-01-29 10:17:00,30.0,28.5,30.36,NNW,337,0.5,2.3,94,0.00,OVC,,0.00,WeatherDisplay:10.37,2013-01-29 15:17:00,
2013-01-29 10:22:00,30.3,28.8,30.36,West,270,0.8,2.3,94,0.00,OVC,,0.00,WeatherDisplay:10.37,2013-01-29 15:22:00,
2013-01-29 10:27:00,30.3,28.8,30.36,WSW,247,0.7,2.3,94,0.00,OVC,,0.00,WeatherDisplay:10.37,2013-01-29 15:27:00,
2013-01-29 10:32:00,30.6,29.1,30.36,WSW,247,0.0,0.0,94,0.00,OVC,,0.00,WeatherDisplay:10.37,2013-01-29 15:32:00,
2013-01-29 10:37:00,30.8,29.3,30.36,WSW,247,0.0,0.0,94,0.00,OVC,,0.00,WeatherDisplay:10.37,2013-01-29 15:37:00,
2013-01-29 10:42:00,31.1,29.8,30.36,North,360,0.2,1.2,95,0.00,OVC,,0.00,WeatherDisplay:10.37,2013-01-29 15:42:00,
2013-01-29 10:47:00,31.4,30.1,30.35,NNW,337,0.9,2.3,95,0.00,OVC,,0.00,WeatherDisplay:10.37,2013-01-29 15:47:00,
2013-01-29 10:52:00,31.3,30.0,30.36,NW,315,0.7,2.3,95,0.00,OVC,,0.00,WeatherDisplay:10.37,2013-01-29 15:52:00,
2013-01-29 10:57:00,31.1,29.8,30.36,North,360,1.2,2.3,95,0.00,OVC,,0.00,WeatherDisplay:10.37,2013-01-29 15:57:00,
2013-01-29 11:02:00,31.3,30.0,30.36,North,360,1.5,2.3,95,0.00,OVC,,0.00,WeatherDisplay:10.37,2013-01-29 16:02:00,
2013-01-29 11:07:00,31.3,30.0,30.36,West,270,1.4,2.3,95,0.00,OVC,,0.00,WeatherDisplay:10.37,2013-01-29 16:07:00,
2013-01-29 11:12:00,31.5,30.2,30.36,West,270,1.2,2.3,95,0.00,OVC,,0.00,WeatherDisplay:10.37,2013-01-29 16:12:00,
2013-01-29 11:17:00,31.9,30.6,30.36,NE,45,1.1,3.5,95,0.00,OVC,,0.00,WeatherDisplay:10.37,2013-01-29 16:17:00,
2013-01-29 11:22:00,32.1,30.6,30.36,North,360,1.9,3.5,94,0.00,OVC,,0.01,WeatherDisplay:10.37,2013-01-29 16:22:00,
2013-01-29 11:27:00,32.1,30.8,30.36,West,270,0.8,2.3,95,0.01,RA,,0.01,WeatherDisplay:10.37,2013-01-29 16:27:00,
2013-01-29 11:32:00,32.4,30.9,30.36,West,270,0.0,1.2,94,0.02,RA,,0.02,WeatherDisplay:10.37,2013-01-29 16:32:00,
2013-01-29 11:37:00,32.6,31.1,30.36,SE,135,0.1,1.2,94,0.03,RA,,0.03,WeatherDisplay:10.37,2013-01-29 16:37:00,
2013-01-29 11:42:00,32.7,31.2,30.36,NE,45,0.0,2.3,94,0.04,RA,,0.04,WeatherDisplay:10.37,2013-01-29 16:42:00,
2013-01-29 11:47:00,32.7,31.2,30.35,North,360,0.5,2.3,94,0.04,RA,,0.04,WeatherDisplay:10.37,2013-01-29 16:47:00,
2013-01-29 11:52:00,32.9,31.4,30.35,North,360,1.4,2.3,94,0.05,RA,,0.05,WeatherDisplay:10.37,2013-01-29 16:52:00,
2013-01-29 11:57:00,32.8,31.0,30.35,NW,315,1.4,2.3,93,0.06,RA,,0.06,WeatherDisplay:10.37,2013-01-29 16:57:00,
2013-01-29 12:02:00,32.4,31.1,30.35,WNW,292,1.4,2.3,95,0.06,RA,,0.06,WeatherDisplay:10.37,2013-01-29 17:02:00,
2013-01-29 12:07:00,32.4,31.1,30.35,NW,315,1.2,3.5,95,0.07,RA,,0.07,WeatherDisplay:10.37,2013-01-29 17:07:00,
2013-01-29 12:12:00,32.5,31.2,30.35,SE,135,1.0,2.3,95,0.07,RA,,0.07,WeatherDisplay:10.37,2013-01-29 17:12:00,
2013-01-29 12:17:00,32.4,31.1,30.35,WNW,292,0.5,2.3,95,0.08,RA,,0.08,WeatherDisplay:10.37,2013-01-29 17:17:00,
2013-01-29 12:22:00,32.7,31.4,30.35,WNW,292,0.0,0.0,95,0.08,RA,,0.08,WeatherDisplay:10.37,2013-01-29 17:22:00,
2013-01-29 12:27:00,32.9,31.6,30.36,West,270,1.4,2.3,95,0.08,RA,,0.09,WeatherDisplay:10.37,2013-01-29 17:27:00,
2013-01-29 12:32:00,32.9,31.6,30.36,North,360,1.4,2.3,95,0.07,RA,,0.09,WeatherDisplay:10.37,2013-01-29 17:32:00,
2013-01-29 12:37:00,33.0,31.7,30.36,NNE,22,0.0,1.2,95,0.06,OVC,,0.09,WeatherDisplay:10.37,2013-01-29 17:37:00,
2013-01-29 12:42:00,33.3,32.0,30.35,NNE,22,0.0,0.0,95,0.05,OVC,,0.09,WeatherDisplay:10.37,2013-01-29 17:42:00,
2013-01-29 12:47:00,33.4,31.9,30.35,North,360,0.2,1.2,94,0.06,RA,,0.10,WeatherDisplay:10.37,2013-01-29 17:47:00,
2013-01-29 12:52:00,33.5,32.0,30.35,NE,45,0.3,2.3,94,0.05,RA,,0.10,WeatherDisplay:10.37,2013-01-29 17:52:00,
2013-01-29 12:57:00,33.4,31.9,30.35,West,270,1.5,2.3,94,0.04,OVC,,0.10,WeatherDisplay:10.37,2013-01-29 17:57:00,
2013-01-29 13:02:00,33.4,31.9,30.35,West,270,0.2,1.2,94,0.05,RA,,0.11,WeatherDisplay:10.37,2013-01-29 18:02:00,
2013-01-29 13:07:00,33.1,31.8,30.35,NNE,22,1.7,2.3,95,0.04,RA,,0.11,WeatherDisplay:10.37,2013-01-29 18:07:00,
2013-01-29 13:12:00,33.3,32.0,30.35,North,360,1.0,2.3,95,0.04,OVC,,0.11,WeatherDisplay:10.37,2013-01-29 18:12:00,
2013-01-29 13:17:00,33.4,32.1,30.35,NW,315,0.0,2.3,95,0.03,OVC,,0.11,WeatherDisplay:10.37,2013-01-29 18:17:00,
2013-01-29 13:22:00,33.3,32.0,30.35,SW,225,0.0,1.2,95,0.03,OVC,,0.11,WeatherDisplay:10.37,2013-01-29 18:22:00,
2013-01-29 13:27:00,33.1,31.8,30.35,West,270,0.9,2.3,95,0.03,OVC,,0.11,WeatherDisplay:10.37,2013-01-29 18:27:00,
2013-01-29 13:32:00,33.1,31.8,30.35,West,270,0.0,0.0,95,0.03,RA,,0.12,WeatherDisplay:10.37,2013-01-29 18:32:00,
2013-01-29 13:37:00,33.3,32.0,30.35,West,270,0.3,2.3,95,0.03,RA,,0.12,WeatherDisplay:10.37,2013-01-29 18:37:00,
2013-01-29 13:42:00,33.3,32.0,30.35,NE,45,0.0,1.0,95,0.03,OVC,,0.12,WeatherDisplay:10.37,2013-01-29 18:42:00,
2013-01-29 13:47:00,33.3,32.0,30.35,SSE,157,1.1,2.3,95,0.02,OVC,,0.12,WeatherDisplay:10.37,2013-01-29 18:47:00,
2013-01-29 13:52:00,33.5,32.2,30.35,NW,315,0.0,0.0,95,0.02,OVC,,0.12,WeatherDisplay:10.37,2013-01-29 18:52:00,
2013-01-29 13:57:00,33.4,32.1,30.35,SE,135,1.5,2.3,95,0.02,OVC,,0.12,WeatherDisplay:10.37,2013-01-29 18:57:00,
2013-01-29 14:02:00,33.6,32.3,30.35,SSE,157,0.8,2.3,95,0.01,OVC,,0.12,WeatherDisplay:10.37,2013-01-29 19:02:00,
2013-01-29 14:07:00,33.7,32.4,30.36,SSW,202,0.0,2.3,95,0.01,OVC,,0.12,WeatherDisplay:10.37,2013-01-29 19:07:00,
2013-01-29 14:12:00,33.7,32.4,30.36,SE,135,1.2,2.3,95,0.01,OVC,,0.12,WeatherDisplay:10.37,2013-01-29 19:12:00,
2013-01-29 14:17:00,33.9,32.4,30.36,NNE,22,0.3,2.3,94,0.01,OVC,,0.12,WeatherDisplay:10.37,2013-01-29 19:17:00,
2013-01-29 14:22:00,34.1,32.6,30.36,NNE,22,1.2,2.3,94,0.01,OVC,,0.12,WeatherDisplay:10.37,2013-01-29 19:22:00,
2013-01-29 14:27:00,34.3,32.8,30.36,NNE,22,0.6,2.3,94,0.01,OVC,,0.12,WeatherDisplay:10.37,2013-01-29 19:27:00,
2013-01-29 14:32:00,34.3,32.5,30.36,North,360,0.1,1.2,93,0.00,OVC,,0.12,WeatherDisplay:10.37,2013-01-29 19:32:00,
2013-01-29 14:37:00,34.4,32.6,30.37,North,360,0.2,2.3,93,0.00,OVC,,0.12,WeatherDisplay:10.37,2013-01-29 19:37:00,
2013-01-29 14:42:00,34.3,32.5,30.37,North,360,0.0,0.0,93,0.00,OVC,,0.12,WeatherDisplay:10.37,2013-01-29 19:42:00,
2013-01-29 14:47:00,34.1,32.3,30.37,SE,135,0.0,1.2,93,0.00,OVC,,0.12,WeatherDisplay:10.37,2013-01-29 19:47:00,
2013-01-29 14:52:00,33.9,32.1,30.37,SE,135,0.0,1.2,93,0.00,OVC,,0.12,WeatherDisplay:10.37,2013-01-29 19:52:00,
2013-01-29 14:57:00,33.9,32.1,30.37,SE,135,0.0,0.0,93,0.00,OVC,,0.12,WeatherDisplay:10.37,2013-01-29 19:57:00,
2013-01-29 15:02:00,33.9,32.1,30.37,SE,135,0.6,1.2,93,0.00,OVC,,0.12,WeatherDisplay:10.37,2013-01-29 20:02:00,
2013-01-29 15:07:00,33.7,32.2,30.37,SE,135,0.0,0.0,94,0.00,OVC,,0.12,WeatherDisplay:10.37,2013-01-29 20:07:00,
2013-01-29 15:12:00,33.6,32.3,30.37,SE,135,0.3,1.2,95,0.00,OVC,,0.12,WeatherDisplay:10.37,2013-01-29 20:12:00,
2013-01-29 15:17:00,33.6,32.3,30.37,SE,135,0.2,1.2,95,0.00,OVC,,0.12,WeatherDisplay:10.37,2013-01-29 20:17:00,
2013-01-29 15:22:00,33.5,32.2,30.36,SE,135,1.3,2.3,95,0.00,OVC,,0.12,WeatherDisplay:10.37,2013-01-29 20:22:00,
2013-01-29 15:27:00,33.4,32.1,30.36,SE,135,0.4,1.2,95,0.00,OVC,,0.12,WeatherDisplay:10.37,2013-01-29 20:27:00,
2013-01-29 15:32:00,33.4,32.1,30.36,SE,135,0.3,1.2,95,0.00,OVC,,0.12,WeatherDisplay:10.37,2013-01-29 20:32:00,
2013-01-29 15:37:00,33.3,32.0,30.36,SE,135,0.6,1.2,95,0.00,OVC,,0.12,WeatherDisplay:10.37,2013-01-29 20:37:00,
2013-01-29 15:42:00,33.3,32.0,30.36,SE,135,0.3,2.3,95,0.00,OVC,,0.12,WeatherDisplay:10.37,2013-01-29 20:42:00,
2013-01-29 15:47:00,33.3,32.0,30.36,SE,135,0.0,0.0,95,0.00,OVC,,0.12,WeatherDisplay:10.37,2013-01-29 20:47:00,
2013-01-29 15:52:00,33.2,31.9,30.37,SE,135,0.0,0.0,95,0.00,OVC,,0.12,WeatherDisplay:10.37,2013-01-29 20:52:00,
2013-01-29 15:57:00,33.2,31.9,30.37,SE,135,0.0,0.0,95,0.00,OVC,,0.12,WeatherDisplay:10.37,2013-01-29 20:57:00,
2013-01-29 16:02:00,33.2,31.9,30.37,SE,135,0.0,0.0,95,0.00,OVC,,0.12,WeatherDisplay:10.37,2013-01-29 21:02:00,
2013-01-29 16:07:00,33.2,31.9,30.37,SE,135,0.0,0.0,95,0.00,OVC,,0.12,WeatherDisplay:10.37,2013-01-29 21:07:00,
2013-01-29 16:12:00,33.2,31.9,30.37,SE,135,0.1,1.2,95,0.00,OVC,,0.12,WeatherDisplay:10.37,2013-01-29 21:12:00,
2013-01-29 16:17:00,33.2,31.9,30.37,SE,135,0.0,0.0,95,0.00,OVC,,0.12,WeatherDisplay:10.37,2013-01-29 21:17:00,
2013-01-29 16:22:00,33.1,31.8,30.37,SE,135,0.0,0.0,95,0.00,OVC,,0.12,WeatherDisplay:10.37,2013-01-29 21:22:00,
2013-01-29 16:27:00,33.1,31.8,30.37,SE,135,0.0,0.0,95,0.00,OVC,,0.12,WeatherDisplay:10.37,2013-01-29 21:27:00,
2013-01-29 16:32:00,33.0,31.7,30.37,SE,135,0.0,0.0,95,0.00,OVC,,0.12,WeatherDisplay:10.37,2013-01-29 21:32:00,
2013-01-29 16:37:00,32.9,31.6,30.37,SE,135,0.0,0.0,95,0.00,OVC,,0.12,WeatherDisplay:10.37,2013-01-29 21:37:00,
2013-01-29 16:42:00,32.9,31.6,30.37,SE,135,0.0,0.0,95,0.00,OVC,,0.12,WeatherDisplay:10.37,2013-01-29 21:42:00,
2013-01-29 16:47:00,32.9,31.6,30.36,SE,135,0.0,0.0,95,0.00,OVC,,0.12,WeatherDisplay:10.37,2013-01-29 21:47:00,
2013-01-29 16:52:00,32.8,31.5,30.36,SE,135,0.1,1.2,95,0.00,OVC,,0.12,WeatherDisplay:10.37,2013-01-29 21:52:00,
2013-01-29 16:57:00,32.7,31.4,30.37,SE,135,0.4,1.2,95,0.00,OVC,,0.12,WeatherDisplay:10.37,2013-01-29 21:57:00,
2013-01-29 17:02:00,32.7,31.4,30.37,SE,135,0.0,0.0,95,0.00,OVC,,0.12,WeatherDisplay:10.37,2013-01-29 22:02:00,
2013-01-29 17:07:00,32.6,31.3,30.37,SE,135,0.0,0.0,95,0.00,OVC,,0.12,WeatherDisplay:10.37,2013-01-29 22:07:00,
2013-01-29 17:12:00,32.5,31.2,30.36,SE,135,0.0,0.0,95,0.00,OVC,,0.12,WeatherDisplay:10.37,2013-01-29 22:12:00,
2013-01-29 17:17:00,32.4,31.1,30.36,SE,135,0.0,0.0,95,0.00,OVC,,0.12,WeatherDisplay:10.37,2013-01-29 22:17:00,
2013-01-29 17:22:00,32.3,31.0,30.36,SE,135,0.0,0.0,95,0.00,OVC,,0.12,WeatherDisplay:10.37,2013-01-29 22:22:00,
2013-01-29 17:27:00,32.3,31.0,30.36,SE,135,0.0,0.0,95,0.00,OVC,,0.12,WeatherDisplay:10.37,2013-01-29 22:27:00,
2013-01-29 17:32:00,32.3,31.0,30.36,SE,135,0.3,1.2,95,0.00,OVC,,0.12,WeatherDisplay:10.37,2013-01-29 22:32:00,
2013-01-29 17:37:00,32.3,31.0,30.36,SE,135,0.0,0.0,95,0.00,OVC,,0.12,WeatherDisplay:10.37,2013-01-29 22:37:00,
2013-01-29 17:42:00,32.2,30.9,30.37,SE,135,0.0,0.0,95,0.00,OVC,,0.12,WeatherDisplay:10.37,2013-01-29 22:42:00,
2013-01-29 17:47:00,32.2,30.9,30.37,SE,135,0.0,0.0,95,0.00,OVC,,0.12,WeatherDisplay:10.37,2013-01-29 22:47:00,
2013-01-29 17:52:00,32.1,30.8,30.37,SE,135,0.0,0.0,95,0.00,OVC,,0.12,WeatherDisplay:10.37,2013-01-29 22:52:00,
2013-01-29 17:57:00,32.2,30.9,30.38,SE,135,0.0,0.0,95,0.00,OVC,,0.12,WeatherDisplay:10.37,2013-01-29 22:57:00,
2013-01-29 18:02:00,32.2,30.9,30.38,SE,135,0.0,0.0,95,0.00,OVC,,0.12,WeatherDisplay:10.37,2013-01-29 23:02:00,
2013-01-29 18:07:00,32.3,31.0,30.38,SE,135,0.0,0.0,95,0.00,OVC,,0.12,WeatherDisplay:10.37,2013-01-29 23:07:00,
2013-01-29 18:12:00,32.3,31.0,30.38,SE,135,0.0,0.0,95,0.00,OVC,,0.12,WeatherDisplay:10.37,2013-01-29 23:12:00,
2013-01-29 18:17:00,32.3,31.0,30.38,SE,135,0.0,0.0,95,0.00,OVC,,0.12,WeatherDisplay:10.37,2013-01-29 23:17:00,
2013-01-29 18:22:00,32.3,31.0,30.37,SE,135,0.0,0.0,95,0.00,CLR,,0.12,WeatherDisplay:10.37,2013-01-29 23:22:00,
2013-01-29 18:27:00,32.3,31.0,30.37,SE,135,0.0,0.0,95,0.00,CLR,,0.12,WeatherDisplay:10.37,2013-01-29 23:27:00,
2013-01-29 18:32:00,32.3,31.0,30.37,SE,135,0.0,0.0,95,0.00,BKN,,0.12,WeatherDisplay:10.37,2013-01-29 23:32:00,
2013-01-29 18:37:00,32.2,30.9,30.37,SE,135,0.2,1.2,95,0.00,BKN,,0.12,WeatherDisplay:10.37,2013-01-29 23:37:00,
2013-01-29 18:42:00,32.2,30.9,30.37,SE,135,0.0,0.0,95,0.00,BKN,,0.12,WeatherDisplay:10.37,2013-01-29 23:42:00,
2013-01-29 18:47:00,32.2,30.9,30.37,SE,135,0.0,0.0,95,0.00,BKN,,0.12,WeatherDisplay:10.37,2013-01-29 23:47:00,
2013-01-29 18:52:00,32.2,30.9,30.38,SE,135,0.0,0.0,95,0.00,OVC,,0.12,WeatherDisplay:10.37,2013-01-29 23:52:00,
2013-01-29 18:57:00,32.2,30.9,30.39,SE,135,0.0,0.0,95,0.00,OVC,,0.12,WeatherDisplay:10.37,2013-01-29 23:57:00,
2013-01-29 19:02:00,32.3,31.0,30.39,SE,135,0.0,0.0,95,0.00,OVC,,0.12,WeatherDisplay:10.37,2013-01-30 00:02:00,
2013-01-29 19:07:00,32.3,31.0,30.38,SE,135,0.0,0.0,95,0.00,OVC,,0.12,WeatherDisplay:10.37,2013-01-30 00:07:00,
2013-01-29 19:12:00,32.3,31.0,30.38,SE,135,0.0,0.0,95,0.00,OVC,,0.12,WeatherDisplay:10.37,2013-01-30 00:12:00,
2013-01-29 19:17:00,32.3,31.0,30.37,SE,135,0.0,0.0,95,0.00,OVC,,0.12,WeatherDisplay:10.37,2013-01-30 00:17:00,
2013-01-29 19:22:00,32.3,31.0,30.37,SE,135,0.1,1.2,95,0.00,OVC,,0.12,WeatherDisplay:10.37,2013-01-30 00:22:00,
2013-01-29 19:27:00,32.3,31.0,30.36,SE,135,0.0,0.0,95,0.00,OVC,,0.12,WeatherDisplay:10.37,2013-01-30 00:27:00,
2013-01-29 19:32:00,32.3,31.0,30.37,NE,45,0.1,2.3,95,0.00,OVC,,0.12,WeatherDisplay:10.37,2013-01-30 00:32:00,
2013-01-29 19:37:00,32.3,31.0,30.37,NE,45,0.0,0.0,95,0.00,OVC,,0.12,WeatherDisplay:10.37,2013-01-30 00:37:00,
2013-01-29 19:42:00,32.3,31.0,30.37,NE,45,0.0,0.0,95,0.00,OVC,,0.12,WeatherDisplay:10.37,2013-01-30 00:42:00,
2013-01-29 19:47:00,32.4,31.1,30.38,South,180,0.0,0.0,95,0.00,OVC,,0.12,WeatherDisplay:10.37,2013-01-30 00:47:00,
2013-01-29 19:52:00,32.5,31.2,30.38,WNW,292,0.1,0.0,95,0.00,OVC,,0.12,WeatherDisplay:10.37,2013-01-30 00:52:00,
2013-01-29 19:57:00,32.6,31.3,30.38,WNW,292,0.4,1.2,95,0.00,OVC,,0.12,WeatherDisplay:10.37,2013-01-30 00:57:00,
2013-01-29 20:02:00,32.5,31.2,30.39,WNW,292,0.3,2.3,95,0.00,OVC,,0.12,WeatherDisplay:10.37,2013-01-30 01:02:00,
2013-01-29 20:07:00,32.6,31.3,30.38,SW,225,0.0,0.0,95,0.00,OVC,,0.12,WeatherDisplay:10.37,2013-01-30 01:07:00,
2013-01-29 20:12:00,32.6,31.3,30.38,SSW,202,0.2,1.2,95,0.00,OVC,,0.12,WeatherDisplay:10.37,2013-01-30 01:12:00,
2013-01-29 20:17:00,32.6,31.3,30.37,SSW,202,0.1,1.2,95,0.00,OVC,,0.12,WeatherDisplay:10.37,2013-01-30 01:17:00,
2013-01-29 20:22:00,32.5,31.2,30.37,SSW,202,0.0,0.0,95,0.00,OVC,,0.12,WeatherDisplay:10.37,2013-01-30 01:22:00,
2013-01-29 20:27:00,32.6,31.3,30.37,SSW,202,0.0,0.0,95,0.00,OVC,,0.12,WeatherDisplay:10.37,2013-01-30 01:27:00,
2013-01-29 20:32:00,32.6,31.3,30.38,SSW,202,0.0,0.0,95,0.00,OVC,,0.12,WeatherDisplay:10.37,2013-01-30 01:32:00,
2013-01-29 20:37:00,32.6,31.3,30.38,SSW,202,0.0,0.0,95,0.00,OVC,,0.12,WeatherDisplay:10.37,2013-01-30 01:37:00,
2013-01-29 20:42:00,32.7,31.4,30.38,SSW,202,0.0,0.0,95,0.00,OVC,,0.12,WeatherDisplay:10.37,2013-01-30 01:42:00,
2013-01-29 20:47:00,32.7,31.4,30.39,SSW,202,0.0,0.0,95,0.00,OVC,,0.12,WeatherDisplay:10.37,2013-01-30 01:47:00,
2013-01-29 20:52:00,32.7,31.4,30.39,SSW,202,0.0,0.0,95,0.00,OVC,,0.12,WeatherDisplay:10.37,2013-01-30 01:52:00,
2013-01-29 20:57:00,32.7,31.4,30.39,SSW,202,0.0,0.0,95,0.00,OVC,,0.12,WeatherDisplay:10.37,2013-01-30 01:57:00,
2013-01-29 21:02:00,32.6,31.3,30.39,SSW,202,0.0,0.0,95,0.00,OVC,,0.12,WeatherDisplay:10.37,2013-01-30 02:02:00,
2013-01-29 21:07:00,32.6,31.3,30.39,SSW,202,0.0,0.0,95,0.00,OVC,,0.12,WeatherDisplay:10.37,2013-01-30 02:07:00,
2013-01-29 21:12:00,32.5,31.2,30.38,SSW,202,0.0,0.0,95,0.01,RA,,0.13,WeatherDisplay:10.37,2013-01-30 02:12:00,
2013-01-29 21:17:00,32.3,31.0,30.38,SSW,202,0.0,0.0,95,0.01,RA,,0.13,WeatherDisplay:10.37,2013-01-30 02:17:00,
2013-01-29 21:22:00,32.4,31.1,30.37,SSW,202,0.0,1.2,95,0.01,OVC,,0.13,WeatherDisplay:10.37,2013-01-30 02:22:00,
2013-01-29 21:27:00,32.4,31.1,30.36,SSW,202,1.1,2.3,95,0.01,OVC,,0.13,WeatherDisplay:10.37,2013-01-30 02:27:00,
2013-01-29 21:32:00,32.4,31.1,30.36,SSW,202,0.0,0.0,95,0.01,OVC,,0.13,WeatherDisplay:10.37,2013-01-30 02:32:00,
2013-01-29 21:37:00,32.5,31.2,30.36,SSW,202,0.0,0.0,95,0.01,OVC,,0.13,WeatherDisplay:10.37,2013-01-30 02:37:00,
2013-01-29 21:42:00,32.5,31.2,30.36,SSW,202,0.0,0.0,95,0.01,-RA,,0.13,WeatherDisplay:10.37,2013-01-30 02:42:00,
2013-01-29 21:47:00,32.5,31.2,30.36,SSW,202,0.0,0.0,95,0.02,-RA,,0.14,WeatherDisplay:10.37,2013-01-30 02:47:00,
2013-01-29 21:52:00,32.5,31.2,30.36,SSW,202,0.0,0.0,95,0.02,-RA,,0.14,WeatherDisplay:10.37,2013-01-30 02:52:00,
2013-01-29 21:57:00,32.5,31.2,30.35,SSW,202,0.0,0.0,95,0.02,-RA,,0.14,WeatherDisplay:10.37,2013-01-30 02:57:00,
2013-01-29 22:02:00,32.5,31.2,30.35,South,180,0.2,1.0,95,0.02,-RA,,0.14,WeatherDisplay:10.37,2013-01-30 03:02:00,
2013-01-29 22:07:00,32.5,31.2,30.35,South,180,0.0,0.0,95,0.02,OVC,,0.14,WeatherDisplay:10.37,2013-01-30 03:07:00,
2013-01-29 22:12:00,32.5,31.2,30.36,South,180,0.0,0.0,95,0.02,OVC,,0.14,WeatherDisplay:10.37,2013-01-30 03:12:00,
2013-01-29 22:17:00,32.5,31.2,30.35,South,180,0.0,0.0,95,0.02,RA,,0.15,WeatherDisplay:10.37,2013-01-30 03:17:00,
2013-01-29 22:22:00,32.4,31.1,30.35,South,180,0.0,0.0,95,0.02,RA,,0.15,WeatherDisplay:10.37,2013-01-30 03:22:00,
2013-01-29 22:27:00,32.4,31.1,30.35,South,180,0.0,0.0,95,0.02,OVC,,0.15,WeatherDisplay:10.37,2013-01-30 03:27:00,
2013-01-29 22:32:00,32.3,31.0,30.35,South,180,0.0,0.0,95,0.02,OVC,,0.15,WeatherDisplay:10.37,2013-01-30 03:32:00,
2013-01-29 22:37:00,32.3,31.0,30.34,South,180,0.0,0.0,95,0.02,OVC,,0.15,WeatherDisplay:10.37,2013-01-30 03:37:00,
2013-01-29 22:42:00,32.4,31.1,30.34,South,180,0.0,1.2,95,0.02,OVC,,0.15,WeatherDisplay:10.37,2013-01-30 03:42:00,
2013-01-29 22:47:00,32.5,31.2,30.34,SE,135,0.0,1.2,95,0.02,RA,,0.16,WeatherDisplay:10.37,2013-01-30 03:47:00,
2013-01-29 22:52:00,32.5,31.2,30.34,SE,135,0.0,0.0,95,0.02,RA,,0.16,WeatherDisplay:10.37,2013-01-30 03:52:00,
2013-01-29 22:57:00,32.5,31.2,30.33,SE,135,0.0,0.0,95,0.03,RA,,0.17,WeatherDisplay:10.37,2013-01-30 03:57:00,
2013-01-29 23:02:00,32.5,31.2,30.34,SE,135,0.0,0.0,95,0.03,RA,,0.17,WeatherDisplay:10.37,2013-01-30 04:02:00,
2013-01-29 23:07:00,32.5,31.2,30.34,SE,135,0.0,0.0,95,0.03,OVC,,0.18,WeatherDisplay:10.37,2013-01-30 04:07:00,
2013-01-29 23:12:00,32.5,31.2,30.34,SE,135,0.0,0.0,95,0.04,RA,,0.18,WeatherDisplay:10.37,2013-01-30 04:12:00,
2013-01-29 23:17:00,32.5,31.2,30.34,SE,135,0.0,0.0,95,0.03,RA,,0.18,WeatherDisplay:10.37,2013-01-30 04:17:00,
2013-01-29 23:22:00,32.5,31.2,30.34,SE,135,0.0,0.0,95,0.03,OVC,,0.18,WeatherDisplay:10.37,2013-01-30 04:22:00,
2013-01-29 23:27:00,32.6,31.3,30.34,SE,135,0.0,0.0,95,0.03,OVC,,0.18,WeatherDisplay:10.37,2013-01-30 04:27:00,
2013-01-29 23:32:00,32.6,31.3,30.35,SE,135,0.0,0.0,95,0.04,RA,,0.19,WeatherDisplay:10.37,2013-01-30 04:32:00,
2013-01-29 23:37:00,32.6,31.3,30.35,SE,135,0.0,0.0,95,0.04,RA,,0.19,WeatherDisplay:10.37,2013-01-30 04:37:00,
2013-01-29 23:42:00,32.6,31.3,30.35,SE,135,0.0,0.0,95,0.04,OVC,,0.19,WeatherDisplay:10.37,2013-01-30 04:42:00,
2013-01-29 23:47:00,32.6,31.3,30.35,SE,135,0.0,0.0,95,0.03,OVC,,0.19,WeatherDisplay:10.37,2013-01-30 04:47:00,
2013-01-29 23:52:00,32.6,31.3,30.35,SE,135,0.0,0.0,95,0.03,OVC,,0.19,WeatherDisplay:10.37,2013-01-30 04:52:00,
2013-01-29 23:57:00,32.6,31.3,30.35,SE,135,0.0,0.0,95,0.02,OVC,,0.19,WeatherDisplay:10.37,2013-01-30 04:57:00,